Погода Молна 2 недели

Антверпен, Бельгия

26 июня-08 июля
  • 26июня
    Сегодня
    +17°
    +30°
    Небольшая облачность
    ВремяПогодаТемператураВлажностьДавлениеВетер, м/сВероятность осадков
    02:00Ясно и безоблачно+19°C82 %758 мм1.0 м/с2 %
    05:00Ясно и безоблачно+17°C90 %757 мм0.9 м/с2 %
    08:00Ясно и безоблачно+20°C85 %757 мм1.5 м/с2 %
    11:00Ясно и безоблачно+25°C65 %757 мм1.8 м/с2 %
    14:00Небольшая облачность+28°C52 %756 мм1.9 м/с2 %
    17:00Практически безоблачно+29°C47 %755 мм1.5 м/с2 %
    20:00Ясно и безоблачно+28°C60 %755 мм1.1 м/с2 %
    23:00Ясно и безоблачно+22°C79 %755 мм0.6 м/с2 %
  • 27июня
    Четверг
    +15°
    +28°
    Практически безоблачно
    ВремяПогодаТемператураВлажностьДавлениеВетер, м/сВероятность осадков
    02:00Ясно и безоблачно+20°C89 %755 мм0.3 м/с2 %
    05:00Ясно и безоблачно+18°C94 %755 мм0.6 м/с2 %
    08:00Небольшая облачность+21°C86 %755 мм1.3 м/с2 %
    11:00Ясно и безоблачно+25°C68 %755 мм1.9 м/с2 %
    14:00Практически безоблачно+28°C53 %755 мм3.1 м/с39 %
    17:00Небольшая облачность+29°C48 %755 мм3.3 м/с28 %
    20:00Практически безоблачно+26°C62 %755 мм1.9 м/с14 %
    23:00Облачно с прояснениями+21°C77 %756 мм1.7 м/с7 %
  • 28июня
    Пятница
    +11°
    +22°
    Облачно с прояснениями
    ВремяПогодаТемператураВлажностьДавлениеВетер, м/сВероятность осадков
    02:00Ясно и безоблачно+17°C73 %756 мм1.9 м/с27 %
    05:00Ясно и безоблачно+15°C82 %757 мм1.8 м/с35 %
    08:00Ясно и безоблачно+16°C79 %758 мм2.7 м/с32 %
    11:00Практически безоблачно+19°C63 %760 мм3.4 м/с16 %
    14:00Облачно с прояснениями+21°C53 %761 мм3.5 м/с11 %
    17:00Небольшая облачность+22°C46 %761 мм3.1 м/с3 %
    20:00Ясно и безоблачно+19°C59 %762 мм3.6 м/с2 %
    23:00Ясно и безоблачно+16°C71 %762 мм0.4 м/с2 %
  • 29июня
    Суббота
    +15°
    +24°
    Практически безоблачно
    ВремяПогодаТемператураВлажностьДавлениеВетер, м/сВероятность осадков
    02:00Ясно и безоблачно+13°C87 %762 мм0.4 м/с2 %
    05:00Ясно и безоблачно+12°C94 %762 мм0.4 м/с2 %
    08:00Практически безоблачно+15°C84 %762 мм0.8 м/с2 %
    11:00Практически безоблачно+21°C58 %761 мм1.0 м/с2 %
    14:00Практически безоблачно+23°C51 %760 мм1.1 м/с8 %
    17:00Небольшая облачность+25°C49 %759 мм1.4 м/с14 %
    20:00Небольшая облачность+24°C58 %757 мм1.7 м/с19 %
    23:00Небольшая облачность+20°C71 %757 мм1.1 м/с19 %
Мы используем cookies
Соглашаюсь